createdAt,value
2023-03-15T00:00:32.638Z,4.78
2023-03-15T00:02:59.772Z,5.57
2023-03-15T00:05:26.923Z,6.35
2023-03-15T00:07:54.027Z,5.97
2023-03-15T00:10:21.103Z,5.50
2023-03-15T00:12:48.193Z,6.68
2023-03-15T00:15:15.855Z,6.65
2023-03-15T00:17:44.975Z,5.60
2023-03-15T00:20:14.757Z,7.88
2023-03-15T00:22:42.579Z,8.07
2023-03-15T00:25:09.928Z,6.63
2023-03-15T00:27:37.074Z,5.82
2023-03-15T00:30:04.594Z,5.03
2023-03-15T00:32:31.859Z,6.25
2023-03-15T00:34:59.123Z,7.70
2023-03-15T00:37:26.422Z,6.85
2023-03-15T00:39:55.702Z,7.13
2023-03-15T00:42:27.771Z,7.88
2023-03-15T00:44:57.998Z,9.38
2023-03-15T00:47:25.146Z,7.97
2023-03-15T00:49:53.227Z,8.38
2023-03-15T00:52:22.036Z,6.65
2023-03-15T00:54:55.976Z,6.43
2023-03-15T00:57:23.275Z,5.45
2023-03-15T00:59:53.127Z,6.90
2023-03-15T01:02:23.149Z,6.53
2023-03-15T01:04:51.359Z,10.43
2023-03-15T01:07:18.645Z,6.70
2023-03-15T01:09:48.356Z,8.18
2023-03-15T01:12:15.626Z,8.38
2023-03-15T01:14:42.784Z,6.28
2023-03-15T01:17:09.931Z,7.07
2023-03-15T01:19:37.014Z,6.75
2023-03-15T01:22:04.112Z,8.43
2023-03-15T01:24:31.363Z,8.05
2023-03-15T01:26:58.454Z,7.82
2023-03-15T01:29:25.617Z,6.60
2023-03-15T01:31:52.838Z,7.20
2023-03-15T01:34:21.568Z,9.02
2023-03-15T01:36:52.393Z,6.07
2023-03-15T01:39:19.475Z,10.13
2023-03-15T01:41:46.573Z,8.35
2023-03-15T01:44:17.786Z,9.50
2023-03-15T01:46:45.111Z,10.18
2023-03-15T01:49:22.820Z,10.35
2023-03-15T01:51:49.928Z,8.60
2023-03-15T01:54:35.539Z,9.18
2023-03-15T01:57:08.152Z,10.43
2023-03-15T01:59:37.260Z,10.20
2023-03-15T02:02:05.218Z,10.18
2023-03-15T02:04:37.124Z,10.05
2023-03-15T02:07:05.211Z,10.43
2023-03-15T02:09:41.876Z,9.68
2023-03-15T02:12:09.771Z,11.68
2023-03-15T02:14:37.148Z,9.25
2023-03-15T02:17:04.412Z,11.02
2023-03-15T02:19:31.559Z,13.43
2023-03-15T02:22:15.628Z,9.63
2023-03-15T02:24:48.739Z,10.02
2023-03-15T02:27:15.979Z,10.15
2023-03-15T02:29:43.227Z,10.05
2023-03-15T02:32:10.569Z,9.98
2023-03-15T02:34:37.702Z,10.65
2023-03-15T02:37:04.962Z,10.18
2023-03-15T02:39:32.076Z,11.32
2023-03-15T02:41:59.736Z,11.45
2023-03-15T02:44:34.397Z,9.25
2023-03-15T02:47:06.610Z,9.77
2023-03-15T02:49:36.024Z,11.02
2023-03-15T02:52:03.100Z,12.30
2023-03-15T02:54:30.200Z,11.38
2023-03-15T02:56:57.366Z,13.93
2023-03-15T02:59:24.538Z,10.38
2023-03-15T03:01:51.621Z,11.73
2023-03-15T03:04:18.956Z,11.07
2023-03-15T03:06:46.056Z,10.75
2023-03-15T03:09:13.393Z,11.15
2023-03-15T03:11:40.548Z,11.57
2023-03-15T03:14:07.630Z,11.07
2023-03-15T03:16:34.719Z,12.95
2023-03-15T03:19:01.996Z,11.40
2023-03-15T03:21:29.085Z,10.43
2023-03-15T03:23:56.162Z,11.73
2023-03-15T03:26:27.893Z,12.77
2023-03-15T03:28:56.229Z,11.98
2023-03-15T03:31:25.083Z,10.38
2023-03-15T03:33:52.747Z,11.57
2023-03-15T03:36:20.111Z,13.98
2023-03-15T03:38:48.055Z,15.80
2023-03-15T03:41:15.588Z,21.45
2023-03-15T03:43:42.988Z,18.20
2023-03-15T03:46:10.412Z,17.08
2023-03-15T03:48:37.648Z,16.02
2023-03-15T03:51:04.944Z,20.38
2023-03-15T03:53:32.194Z,16.13
2023-03-15T03:55:59.434Z,20.30
2023-03-15T03:58:26.519Z,19.65
2023-03-15T04:00:56.806Z,15.40
2023-03-15T04:03:29.799Z,19.30
2023-03-15T04:05:57.782Z,15.45
2023-03-15T04:08:25.543Z,17.40
2023-03-15T04:10:56.822Z,15.02
2023-03-15T04:13:24.795Z,13.50
2023-03-15T04:15:52.415Z,16.33
2023-03-15T04:18:19.596Z,17.67
2023-03-15T04:20:48.128Z,13.98
2023-03-15T04:23:15.926Z,15.43
2023-03-15T04:25:43.286Z,15.18
2023-03-15T04:28:13.362Z,13.90
2023-03-15T04:30:42.684Z,14.38
2023-03-15T04:33:10.024Z,15.27
2023-03-15T04:35:39.063Z,16.95
2023-03-15T04:38:06.807Z,12.93
2023-03-15T04:40:37.487Z,17.13
2023-03-15T04:43:05.854Z,18.92
2023-03-15T04:45:33.099Z,16.20
2023-03-15T04:48:01.557Z,14.60
2023-03-15T04:50:29.643Z,16.42
2023-03-15T04:52:58.685Z,14.38
2023-03-15T04:55:25.895Z,17.35
2023-03-15T04:57:53.116Z,17.33
2023-03-15T05:00:21.678Z,17.50
2023-03-15T05:02:54.940Z,15.00
2023-03-15T05:05:26.455Z,18.10
2023-03-15T05:10:20.661Z,15.18
2023-03-15T05:12:47.723Z,14.38
2023-03-15T05:15:14.849Z,16.65
2023-03-15T05:17:42.012Z,15.15
2023-03-15T05:20:12.731Z,16.58
2023-03-15T05:22:40.894Z,15.68
2023-03-15T05:25:08.796Z,19.20
2023-03-15T05:27:35.862Z,12.88
2023-03-15T05:30:04.054Z,14.30
2023-03-15T05:32:34.813Z,14.60
2023-03-15T05:35:02.380Z,14.82
2023-03-15T05:37:30.065Z,14.30
2023-03-15T05:39:57.231Z,16.88
2023-03-15T05:42:27.322Z,15.50
2023-03-15T05:44:54.548Z,15.68
2023-03-15T05:47:22.097Z,17.25
2023-03-15T05:49:49.336Z,12.95
2023-03-15T05:52:16.625Z,13.98
2023-03-15T05:54:43.787Z,20.13
2023-03-15T05:57:11.562Z,15.10
2023-03-15T05:59:38.695Z,14.20
2023-03-15T06:02:06.015Z,15.63
2023-03-15T06:04:33.252Z,13.93
2023-03-15T06:07:00.441Z,14.45
2023-03-15T06:09:27.605Z,14.45
2023-03-15T06:11:54.937Z,16.30
2023-03-15T06:14:22.101Z,13.57
2023-03-15T06:16:49.460Z,15.10
2023-03-15T06:19:16.576Z,18.83
2023-03-15T06:21:43.960Z,16.88
2023-03-15T06:24:11.140Z,13.60
2023-03-15T06:26:38.357Z,15.95
2023-03-15T06:29:05.475Z,15.68
2023-03-15T06:31:32.680Z,14.20
2023-03-15T06:33:59.763Z,14.70
2023-03-15T06:36:26.900Z,13.18
2023-03-15T06:38:54.575Z,15.48
2023-03-15T06:41:21.706Z,15.75
2023-03-15T06:43:48.784Z,14.15
2023-03-15T06:46:16.149Z,15.27
2023-03-15T06:48:43.252Z,16.95
2023-03-15T06:51:10.397Z,15.23
2023-03-15T06:53:37.645Z,14.02
2023-03-15T06:56:04.864Z,16.25
2023-03-15T06:58:31.942Z,18.98
2023-03-15T07:00:59.174Z,19.42
2023-03-15T07:03:26.479Z,18.33
2023-03-15T07:05:54.649Z,18.30
2023-03-15T07:08:22.760Z,16.98
2023-03-15T07:10:50.404Z,18.08
2023-03-15T07:13:17.638Z,21.00
2023-03-15T07:15:45.047Z,18.10
2023-03-15T07:18:12.142Z,18.52
2023-03-15T07:20:39.289Z,14.27
2023-03-15T07:23:06.490Z,17.30
2023-03-15T07:25:44.965Z,15.48
2023-03-15T07:28:19.482Z,17.42
2023-03-15T07:30:57.270Z,16.48
2023-03-15T07:33:25.080Z,13.95
2023-03-15T07:35:53.540Z,17.67
2023-03-15T07:38:21.458Z,16.92
2023-03-15T07:40:48.682Z,14.80
2023-03-15T07:43:15.994Z,15.40
2023-03-15T07:45:43.445Z,14.85
2023-03-15T07:48:11.304Z,15.93
2023-03-15T07:50:38.673Z,15.45
2023-03-15T07:53:06.534Z,15.40
2023-03-15T07:55:34.293Z,16.70
2023-03-15T07:58:01.891Z,16.63
2023-03-15T08:00:29.580Z,17.05
2023-03-15T08:02:56.854Z,19.67
2023-03-15T08:05:24.839Z,15.32
2023-03-15T08:07:52.510Z,15.23
2023-03-15T08:10:19.754Z,16.38
2023-03-15T08:12:46.859Z,17.20
2023-03-15T08:15:14.972Z,15.23
2023-03-15T08:17:44.428Z,17.13
2023-03-15T08:20:14.275Z,12.98
2023-03-15T08:22:44.682Z,14.88
2023-03-15T08:25:12.678Z,16.15
2023-03-15T08:27:40.321Z,14.85
2023-03-15T08:30:07.764Z,16.15
2023-03-15T08:32:35.016Z,14.93
2023-03-15T08:35:02.188Z,13.93
2023-03-15T08:37:29.288Z,14.10
2023-03-15T08:40:05.257Z,15.98
2023-03-15T08:42:32.368Z,16.33
2023-03-15T08:45:01.924Z,16.63
2023-03-15T08:47:29.248Z,18.55
2023-03-15T08:49:56.327Z,14.75
2023-03-15T08:52:23.432Z,14.80
2023-03-15T08:54:50.680Z,16.27
2023-03-15T08:57:17.774Z,16.58
2023-03-15T08:59:45.600Z,15.80
2023-03-15T09:02:13.355Z,14.07
2023-03-15T09:04:40.632Z,12.75
2023-03-15T09:07:07.763Z,15.38
2023-03-15T09:09:35.246Z,13.82
2023-03-15T09:12:02.336Z,15.82
2023-03-15T09:14:29.471Z,17.58
2023-03-15T09:16:56.703Z,17.27
2023-03-15T09:19:23.892Z,17.40
2023-03-15T09:21:51.327Z,17.25
2023-03-15T09:24:18.488Z,19.25
2023-03-15T09:26:45.667Z,18.10
2023-03-15T09:29:12.782Z,19.65
2023-03-15T09:31:40.084Z,22.08
2023-03-15T09:34:07.227Z,18.70
2023-03-15T09:36:34.549Z,19.25
2023-03-15T09:39:01.799Z,19.20
2023-03-15T09:41:45.581Z,15.80
2023-03-15T09:44:26.041Z,21.48
2023-03-15T09:47:01.986Z,16.03
2023-03-15T09:49:34.085Z,20.52
2023-03-15T09:52:09.342Z,17.30
2023-03-15T09:54:49.236Z,15.63
2023-03-15T09:57:19.472Z,16.83
2023-03-15T09:59:47.990Z,16.42
2023-03-15T10:02:26.174Z,18.25
2023-03-15T10:04:56.585Z,23.10
2023-03-15T10:07:23.688Z,19.38
2023-03-15T10:09:51.064Z,18.35
2023-03-15T10:12:27.044Z,22.25
2023-03-15T10:14:59.421Z,19.27
2023-03-15T10:17:31.858Z,18.33
2023-03-15T10:20:18.976Z,17.10
2023-03-15T10:22:58.854Z,17.33
2023-03-15T10:25:29.740Z,19.88
2023-03-15T10:27:59.969Z,21.30
2023-03-15T10:30:32.005Z,22.45
2023-03-15T10:33:14.341Z,17.67
2023-03-15T10:35:43.010Z,21.25
2023-03-15T10:38:20.809Z,18.20
2023-03-15T10:40:49.547Z,23.13
2023-03-15T10:43:19.503Z,18.98
2023-03-15T10:46:04.613Z,19.02
2023-03-15T10:48:32.991Z,16.63
2023-03-15T10:51:16.848Z,16.98
2023-03-15T10:54:02.754Z,17.50
2023-03-15T10:56:32.109Z,15.27
2023-03-15T10:59:12.367Z,19.00
2023-03-15T11:01:40.306Z,18.00
2023-03-15T11:04:13.907Z,18.20
2023-03-15T11:06:46.319Z,18.33
2023-03-15T11:09:15.046Z,21.08
2023-03-15T11:12:02.363Z,18.50
2023-03-15T11:14:35.639Z,15.23
2023-03-15T11:17:04.016Z,17.40
2023-03-15T11:19:32.471Z,15.50
2023-03-15T11:22:01.726Z,18.95
2023-03-15T11:24:30.388Z,15.13
2023-03-15T11:27:02.108Z,15.88
2023-03-15T11:29:29.173Z,13.05
2023-03-15T11:31:56.984Z,14.38
2023-03-15T11:34:38.981Z,19.58
2023-03-15T11:37:13.173Z,17.23
2023-03-15T11:39:45.384Z,18.42
2023-03-15T11:42:21.027Z,14.68
2023-03-15T11:44:49.075Z,25.38
2023-03-15T11:47:32.056Z,18.80
2023-03-15T11:49:59.617Z,16.58
2023-03-15T11:52:29.077Z,17.60
2023-03-15T11:55:03.878Z,15.82
2023-03-15T11:57:39.196Z,18.77
2023-03-15T12:00:18.384Z,17.95
2023-03-15T12:02:51.276Z,18.45
2023-03-15T12:05:38.762Z,18.65
2023-03-15T12:08:34.580Z,18.77
2023-03-15T12:11:02.309Z,16.42
2023-03-15T12:13:31.180Z,20.55
2023-03-15T12:15:59.245Z,16.80
2023-03-15T12:18:28.674Z,18.58
2023-03-15T12:21:07.147Z,19.17
2023-03-15T12:23:42.682Z,19.10
2023-03-15T12:26:17.698Z,18.13
2023-03-15T12:28:53.461Z,16.20
2023-03-15T12:31:20.915Z,17.55
2023-03-15T12:33:52.882Z,18.55
2023-03-15T12:36:39.629Z,18.10
2023-03-15T12:39:15.697Z,18.65
2023-03-15T12:41:43.992Z,15.05
2023-03-15T12:44:31.742Z,16.70
2023-03-15T12:47:00.097Z,16.15
2023-03-15T12:49:27.166Z,11.93
2023-03-15T12:51:58.092Z,16.13
2023-03-15T12:54:35.634Z,15.60
2023-03-15T12:57:04.216Z,14.30
2023-03-15T12:59:34.349Z,20.10
2023-03-15T13:02:02.564Z,16.27
2023-03-15T13:04:30.617Z,12.10
2023-03-15T13:07:03.802Z,14.43
2023-03-15T13:09:45.627Z,13.43
2023-03-15T13:12:15.853Z,11.65
2023-03-15T13:14:46.503Z,9.25
2023-03-15T13:17:23.554Z,10.02
2023-03-15T13:19:55.312Z,14.25
2023-03-15T13:22:32.547Z,14.07
2023-03-15T13:25:17.961Z,13.95
2023-03-15T13:27:54.254Z,12.18
2023-03-15T13:30:24.115Z,14.05
2023-03-15T13:33:02.888Z,12.45
2023-03-15T13:35:30.005Z,11.73
2023-03-15T13:38:16.040Z,13.95
2023-03-15T13:40:47.339Z,11.73
2023-03-15T13:45:44.792Z,14.30
2023-03-15T13:48:13.384Z,12.00
2023-03-15T13:50:40.617Z,11.82
2023-03-15T13:53:08.017Z,11.43
2023-03-15T13:55:36.372Z,13.32
2023-03-15T13:58:08.187Z,11.95
2023-03-15T14:00:37.073Z,19.48
2023-03-15T14:03:07.223Z,15.85
2023-03-15T14:05:36.755Z,13.65
2023-03-15T14:08:06.000Z,16.15
2023-03-15T14:10:35.053Z,16.63
2023-03-15T14:13:17.798Z,16.73
2023-03-15T14:15:45.363Z,16.92
2023-03-15T14:18:12.461Z,14.85
2023-03-15T14:20:43.672Z,15.48
2023-03-15T14:25:37.893Z,16.73
2023-03-15T14:28:05.960Z,21.30
2023-03-15T14:30:37.451Z,18.35
2023-03-15T14:33:07.643Z,15.82
2023-03-15T14:35:37.784Z,17.67
2023-03-15T14:38:09.461Z,19.90
2023-03-15T14:40:38.555Z,15.82
2023-03-15T14:43:06.997Z,18.65
2023-03-15T14:45:35.092Z,17.15
2023-03-15T14:48:05.567Z,15.82
2023-03-15T14:50:40.775Z,16.02
2023-03-15T14:53:08.775Z,14.80
2023-03-15T14:55:36.861Z,16.08
2023-03-15T14:58:24.302Z,15.30
2023-03-15T15:00:53.459Z,19.45
2023-03-15T15:03:35.707Z,12.75
2023-03-15T15:06:03.334Z,12.68
2023-03-15T15:08:31.842Z,15.48
2023-03-15T15:10:59.114Z,15.52
2023-03-15T15:13:27.570Z,15.88
2023-03-15T15:15:56.608Z,11.48
2023-03-15T15:18:25.365Z,11.30
2023-03-15T15:20:55.520Z,14.57
2023-03-15T15:23:24.458Z,14.13
2023-03-15T15:25:53.053Z,13.00
2023-03-15T15:28:33.294Z,14.25
2023-03-15T15:33:28.662Z,11.52
2023-03-15T15:35:56.865Z,14.02
2023-03-15T15:38:38.772Z,15.60
2023-03-15T15:41:06.719Z,9.43
2023-03-15T15:43:33.959Z,13.38
2023-03-15T15:46:02.019Z,13.27
2023-03-15T15:48:29.255Z,13.80
2023-03-15T15:50:56.355Z,20.95
2023-03-15T15:53:23.774Z,15.60
2023-03-15T15:55:50.897Z,19.00
2023-03-15T15:58:18.074Z,15.40
2023-03-15T16:00:45.408Z,16.40
2023-03-15T16:03:15.628Z,15.50
2023-03-15T16:05:42.903Z,13.13
2023-03-15T16:08:13.113Z,14.32
2023-03-15T16:10:40.192Z,13.95
2023-03-15T16:13:07.268Z,14.57
2023-03-15T16:15:34.767Z,17.88
2023-03-15T16:18:02.463Z,16.70
2023-03-15T16:20:29.746Z,18.52
2023-03-15T16:22:58.473Z,14.48
2023-03-15T16:25:28.555Z,15.23
2023-03-15T16:27:56.321Z,16.92
2023-03-15T16:30:28.576Z,15.93
2023-03-15T16:32:55.721Z,16.27
2023-03-15T16:35:35.008Z,17.95
2023-03-15T16:38:02.582Z,16.98
2023-03-15T16:40:31.376Z,15.32
2023-03-15T16:42:59.013Z,20.02
2023-03-15T16:45:26.205Z,17.38
2023-03-15T16:47:53.403Z,18.00
2023-03-15T16:50:21.007Z,21.58
2023-03-15T16:52:51.782Z,18.50
2023-03-15T16:55:21.480Z,18.55
2023-03-15T16:57:48.575Z,19.48
2023-03-15T17:00:20.300Z,19.98
2023-03-15T17:02:48.730Z,17.95
2023-03-15T17:05:18.933Z,19.50
2023-03-15T17:07:49.836Z,16.67
2023-03-15T17:10:21.184Z,19.98
2023-03-15T17:12:48.612Z,23.48
2023-03-15T17:15:16.559Z,17.27
2023-03-15T17:17:43.678Z,21.65
2023-03-15T17:20:12.750Z,20.67
2023-03-15T17:22:43.327Z,22.83
2023-03-15T17:25:10.686Z,19.27
2023-03-15T17:27:40.188Z,19.75
2023-03-15T17:30:18.129Z,22.30
2023-03-15T17:32:45.547Z,20.35
2023-03-15T17:35:13.873Z,23.15
2023-03-15T17:37:44.933Z,20.40
2023-03-15T17:40:16.730Z,20.00
2023-03-15T17:42:43.877Z,24.23
2023-03-15T17:45:15.279Z,25.55
2023-03-15T17:47:42.571Z,22.63
2023-03-15T17:50:10.154Z,20.00
2023-03-15T17:52:37.643Z,20.58
2023-03-15T17:55:04.878Z,21.55
2023-03-15T17:57:33.851Z,20.60
2023-03-15T18:00:02.184Z,26.83
2023-03-15T18:02:31.489Z,22.90
2023-03-15T18:05:00.408Z,27.03
2023-03-15T18:07:29.611Z,26.23
2023-03-15T18:09:56.844Z,22.58
2023-03-15T18:12:24.656Z,28.52
2023-03-15T18:14:51.806Z,26.08
2023-03-15T18:17:19.181Z,24.55
2023-03-15T18:19:46.268Z,24.45
2023-03-15T18:22:16.622Z,25.00
2023-03-15T18:24:46.042Z,26.27
2023-03-15T18:27:14.105Z,26.50
2023-03-15T18:29:41.346Z,29.50
2023-03-15T18:32:08.440Z,33.20
2023-03-15T18:34:35.556Z,38.83
2023-03-15T18:37:02.978Z,23.95
2023-03-15T18:39:30.100Z,27.02
2023-03-15T18:41:57.207Z,25.05
2023-03-15T18:44:24.431Z,22.13
2023-03-15T18:46:51.556Z,25.75
2023-03-15T18:49:18.709Z,26.75
2023-03-15T18:51:45.906Z,23.83
2023-03-15T18:54:13.415Z,26.40
2023-03-15T18:56:40.511Z,28.80
2023-03-15T18:59:07.815Z,28.40
2023-03-15T19:01:35.082Z,31.33
2023-03-15T19:04:02.275Z,28.98
2023-03-15T19:06:29.474Z,29.83
2023-03-15T19:08:57.379Z,29.58
2023-03-15T19:11:25.138Z,30.50
2023-03-15T19:13:52.298Z,33.28
2023-03-15T19:16:20.718Z,31.30
2023-03-15T19:18:49.385Z,39.20
2023-03-15T19:21:18.695Z,36.75
2023-03-15T19:23:46.245Z,36.38
2023-03-15T19:26:13.795Z,34.92
2023-03-15T19:28:41.268Z,32.35
2023-03-15T19:31:09.172Z,37.22
2023-03-15T19:33:36.473Z,39.45
2023-03-15T19:36:03.828Z,49.95
2023-03-15T19:38:30.965Z,64.97
2023-03-15T19:41:03.563Z,61.78
2023-03-15T19:43:30.741Z,56.65
2023-03-15T19:45:57.856Z,56.33
2023-03-15T19:48:25.004Z,60.03
2023-03-15T19:50:52.161Z,66.05
2023-03-15T19:53:19.233Z,66.28
2023-03-15T19:55:46.303Z,75.20
2023-03-15T19:58:13.513Z,73.43
2023-03-15T20:00:40.763Z,76.57
2023-03-15T20:03:07.897Z,79.30
2023-03-15T20:05:35.823Z,75.18
2023-03-15T20:08:02.911Z,69.32
2023-03-15T20:10:29.993Z,56.58
2023-03-15T20:12:59.132Z,58.05
2023-03-15T20:15:28.914Z,47.63
2023-03-15T20:17:56.421Z,48.72
2023-03-15T20:20:23.924Z,49.88
2023-03-15T20:22:51.309Z,53.70
2023-03-15T20:25:21.138Z,52.95
2023-03-15T20:27:48.703Z,44.90
2023-03-15T20:30:16.726Z,48.72
2023-03-15T20:32:43.979Z,48.28
2023-03-15T20:35:12.054Z,47.05
2023-03-15T20:37:41.509Z,43.53
2023-03-15T20:40:12.816Z,42.95
2023-03-15T20:45:07.402Z,49.53
2023-03-15T20:47:34.632Z,56.17
2023-03-15T20:50:01.942Z,49.67
2023-03-15T20:52:29.078Z,50.83
2023-03-15T20:54:56.377Z,51.58
2023-03-15T20:57:23.505Z,49.28
2023-03-15T20:59:51.286Z,47.05
2023-03-15T21:02:18.546Z,46.25
2023-03-15T21:04:46.169Z,49.45
2023-03-15T21:07:13.274Z,45.50
2023-03-15T21:09:40.502Z,44.53
2023-03-15T21:12:08.171Z,50.53
2023-03-15T21:14:35.593Z,46.72
2023-03-15T21:17:02.874Z,49.28
2023-03-15T21:19:29.976Z,50.08
2023-03-15T21:21:58.926Z,43.47
2023-03-15T21:24:29.065Z,46.80
2023-03-15T21:26:56.220Z,45.95
2023-03-15T21:29:23.378Z,51.60
2023-03-15T21:31:50.555Z,46.47
2023-03-15T21:34:17.759Z,45.22
2023-03-15T21:36:44.904Z,45.60
2023-03-15T21:39:12.074Z,44.30
2023-03-15T21:41:39.182Z,48.95
2023-03-15T21:44:06.381Z,47.95
2023-03-15T21:46:33.947Z,49.40
2023-03-15T21:49:01.748Z,45.17
2023-03-15T21:51:29.488Z,44.70
2023-03-15T21:53:56.946Z,46.25
2023-03-15T21:56:26.219Z,45.45
2023-03-15T21:58:54.475Z,45.75
2023-03-15T22:01:28.139Z,42.53
2023-03-15T22:03:55.328Z,48.08
2023-03-15T22:06:22.873Z,44.47
2023-03-15T22:08:50.603Z,45.30
2023-03-15T22:11:17.946Z,42.22
2023-03-15T22:13:45.075Z,44.08
2023-03-15T22:16:13.483Z,42.05
2023-03-15T22:18:40.810Z,42.35
2023-03-15T22:21:08.009Z,42.92
2023-03-15T22:23:35.312Z,45.55
2023-03-15T22:26:02.462Z,46.38
2023-03-15T22:28:29.544Z,43.25
2023-03-15T22:30:56.778Z,46.78
2023-03-15T22:33:24.406Z,47.83
2023-03-15T22:35:57.717Z,45.75
2023-03-15T22:38:25.382Z,49.35
2023-03-15T22:41:00.003Z,45.75
2023-03-15T22:43:27.171Z,43.67
2023-03-15T22:45:54.310Z,44.67
2023-03-15T22:48:22.870Z,45.35
2023-03-15T22:50:58.805Z,45.08
2023-03-15T22:53:26.047Z,46.95
2023-03-15T22:55:53.225Z,43.30
2023-03-15T22:58:20.421Z,43.58
2023-03-15T23:00:47.693Z,41.97
2023-03-15T23:03:15.314Z,42.55
2023-03-15T23:05:42.833Z,42.65
2023-03-15T23:08:10.185Z,41.25
2023-03-15T23:10:37.309Z,38.38
2023-03-15T23:13:04.734Z,37.83
2023-03-15T23:15:31.915Z,42.20
2023-03-15T23:17:59.182Z,41.25
2023-03-15T23:20:26.866Z,34.38
2023-03-15T23:22:54.303Z,31.92
2023-03-15T23:25:23.036Z,39.42
2023-03-15T23:27:50.116Z,32.83
2023-03-15T23:30:17.668Z,35.83
2023-03-15T23:32:44.815Z,34.13
2023-03-15T23:35:12.820Z,32.35
2023-03-15T23:37:40.384Z,36.95
2023-03-15T23:40:15.784Z,34.58
2023-03-15T23:42:44.067Z,33.13
2023-03-15T23:45:12.263Z,33.30
2023-03-15T23:47:40.102Z,37.58
2023-03-15T23:50:08.171Z,30.67
2023-03-15T23:52:35.785Z,30.58
2023-03-15T23:55:02.886Z,31.77
2023-03-15T23:57:30.045Z,35.58
2023-03-15T23:59:57.151Z,28.40
